Time;durP1;ratioP1;P1;durP2;ratioP2;P2;SDS_P1;SDS_P2;PMS_P1;PMS_P2;Temp;Humidity;BMP_temperature;BMP_pressure;BME280_temperature;BME280_humidity;BME280_pressure;Samples;Min_cycle;Max_cycle;Signal;HPM_P1;HPM_P2
2024/03/10 00:02:22;;;;;;;37.53;18.63;;;6.10;99.90;;;;;;5082119;28;20036;-74
2024/03/10 00:04:48;;;;;;;38.33;18.53;;;6.20;99.90;;;;;;5079842;28;20062;-74
2024/03/10 00:07:13;;;;;;;41.53;19.33;;;6.10;99.90;;;;;;5080841;28;20114;-74
2024/03/10 00:09:40;;;;;;;37.15;17.83;;;6.10;99.90;;;;;;5076505;28;20042;-74
2024/03/10 00:12:06;;;;;;;43.75;18.83;;;6.10;99.90;;;;;;5074826;28;20072;-74
2024/03/10 00:14:32;;;;;;;41.25;18.98;;;6.10;99.90;;;;;;5065417;28;20043;-74
2024/03/10 00:16:58;;;;;;;38.00;18.25;;;6.10;99.90;;;;;;5075114;28;20036;-74
2024/03/10 00:19:25;;;;;;;40.22;19.00;;;6.10;99.90;;;;;;5080294;28;20040;-74
2024/03/10 00:21:51;;;;;;;39.83;19.10;;;6.10;99.90;;;;;;5076078;28;20135;-74
2024/03/10 00:24:17;;;;;;;34.88;17.48;;;6.10;99.90;;;;;;5078120;28;20055;-74
2024/03/10 00:26:43;;;;;;;40.08;19.08;;;6.10;99.90;;;;;;5059970;28;20110;-74
2024/03/10 00:29:09;;;;;;;41.08;19.13;;;6.10;99.90;;;;;;5077668;28;20456;-74
2024/03/10 00:31:35;;;;;;;41.55;19.05;;;6.00;99.90;;;;;;5066106;28;20052;-74
2024/03/10 00:34:00;;;;;;;47.63;19.45;;;6.00;99.90;;;;;;5080762;28;20119;-74
2024/03/10 00:36:26;;;;;;;42.03;19.33;;;6.00;99.90;;;;;;5079127;28;20036;-73
2024/03/10 00:38:52;;;;;;;38.08;18.92;;;6.00;99.90;;;;;;5079874;28;20048;-74
2024/03/10 00:41:18;;;;;;;39.22;18.33;;;6.00;99.90;;;;;;5073901;28;20667;-74
2024/03/10 00:43:43;;;;;;;40.30;19.55;;;6.00;99.90;;;;;;5073971;28;20036;-74
2024/03/10 00:46:09;;;;;;;47.15;21.58;;;5.90;99.90;;;;;;5076219;28;20032;-74
2024/03/10 00:48:35;;;;;;;41.42;18.75;;;5.90;99.90;;;;;;5079802;28;20039;-74
2024/03/10 00:51:01;;;;;;;44.47;19.80;;;5.90;99.90;;;;;;5080959;28;20028;-73
2024/03/10 00:53:27;;;;;;;41.53;18.55;;;5.90;99.90;;;;;;5065518;28;20047;-74
2024/03/10 00:55:52;;;;;;;41.80;19.58;;;5.90;99.90;;;;;;5076964;28;20494;-74
2024/03/10 00:58:18;;;;;;;41.78;19.77;;;5.80;99.90;;;;;;5081146;28;20032;-74
2024/03/10 01:00:43;;;;;;;43.28;19.80;;;5.80;99.90;;;;;;5075686;28;20036;-74
2024/03/10 01:03:11;;;;;;;38.95;19.63;;;5.80;99.90;;;;;;5082670;28;20036;-74
2024/03/10 01:05:37;;;;;;;44.03;20.10;;;5.80;99.90;;;;;;5089965;28;20092;-74
2024/03/10 01:08:03;;;;;;;40.58;19.10;;;5.80;99.90;;;;;;5077947;28;20654;-74
2024/03/10 01:10:29;;;;;;;42.53;20.15;;;5.80;99.90;;;;;;5081134;28;20040;-74
2024/03/10 01:12:55;;;;;;;45.65;21.30;;;5.70;99.90;;;;;;5082404;28;20032;-74
2024/03/10 01:15:24;;;;;;;43.97;19.90;;;5.70;99.90;;;;;;5066659;28;20028;-74
2024/03/10 01:17:50;;;;;;;46.50;21.10;;;5.70;99.90;;;;;;5082188;28;20105;-74
2024/03/10 01:20:16;;;;;;;43.03;19.92;;;5.70;99.90;;;;;;5080681;28;20039;-73
2024/03/10 01:22:42;;;;;;;42.28;19.80;;;5.70;99.90;;;;;;5060470;28;20041;-74
2024/03/10 01:25:09;;;;;;;38.33;19.00;;;5.60;99.90;;;;;;5071576;28;20038;-74
2024/03/10 01:27:36;;;;;;;47.08;22.40;;;5.70;99.90;;;;;;5062622;28;20067;-74
2024/03/10 01:30:02;;;;;;;43.92;20.52;;;5.60;99.90;;;;;;5076744;28;20028;-74
2024/03/10 01:32:28;;;;;;;39.28;20.20;;;5.60;99.90;;;;;;5078757;28;20034;-74
2024/03/10 01:34:53;;;;;;;44.35;20.10;;;5.60;99.90;;;;;;5081257;28;20119;-74
2024/03/10 01:37:19;;;;;;;48.53;21.52;;;5.60;99.90;;;;;;5076418;28;20497;-74
2024/03/10 01:39:45;;;;;;;42.28;19.92;;;5.60;99.90;;;;;;5076983;28;20116;-74
2024/03/10 01:42:11;;;;;;;40.60;20.48;;;5.60;99.90;;;;;;5080088;28;20520;-74
2024/03/10 01:44:37;;;;;;;44.80;20.95;;;5.70;99.90;;;;;;5079715;28;20024;-74
2024/03/10 01:47:03;;;;;;;49.30;21.95;;;5.60;99.90;;;;;;5076625;28;20078;-75
2024/03/10 01:49:29;;;;;;;47.13;22.50;;;5.60;99.90;;;;;;5085048;28;20043;-74
2024/03/10 01:51:55;;;;;;;45.63;20.88;;;5.50;99.90;;;;;;5081960;28;20047;-74
2024/03/10 01:54:25;;;;;;;43.25;21.35;;;5.50;99.90;;;;;;5069927;28;20039;-74
2024/03/10 01:56:51;;;;;;;49.17;22.67;;;5.50;99.90;;;;;;5060400;28;20041;-74
2024/03/10 01:59:17;;;;;;;51.83;23.45;;;5.50;99.90;;;;;;5073009;28;20395;-74
2024/03/10 02:01:46;;;;;;;49.53;22.23;;;5.40;99.90;;;;;;5081091;28;20520;-74
2024/03/10 02:04:17;;;;;;;51.67;23.52;;;5.40;99.90;;;;;;5067467;28;20492;-75
2024/03/10 02:06:43;;;;;;;52.10;23.10;;;5.40;99.90;;;;;;5077240;28;20042;-75
2024/03/10 02:09:10;;;;;;;49.58;23.20;;;5.50;99.90;;;;;;5078904;28;20450;-74
2024/03/10 02:11:36;;;;;;;50.13;22.67;;;5.40;99.90;;;;;;5085284;28;20028;-74
2024/03/10 02:14:02;;;;;;;51.58;23.92;;;5.40;99.90;;;;;;5083080;28;20063;-75
2024/03/10 02:16:28;;;;;;;51.15;23.63;;;5.40;99.90;;;;;;5077657;28;20033;-74
2024/03/10 02:18:54;;;;;;;51.53;22.95;;;5.40;99.90;;;;;;5076420;28;20071;-75
2024/03/10 02:21:21;;;;;;;57.13;23.10;;;5.30;99.90;;;;;;5082352;28;20396;-74
2024/03/10 02:23:47;;;;;;;50.75;23.35;;;5.30;99.90;;;;;;5086778;28;20039;-74
2024/03/10 02:26:15;;;;;;;54.33;24.55;;;5.40;99.90;;;;;;5081310;28;20765;-75
2024/03/10 02:28:56;;;;;;;;;;;5.30;99.90;;;;;;5080259;28;20043;-74
2024/03/10 02:47:51;;;;;;;51.75;24.23;;;5.20;99.90;;;;;;5082016;28;20050;-74
2024/03/10 02:50:17;;;;;;;59.08;25.80;;;5.10;99.90;;;;;;5083755;28;20031;-74
2024/03/10 02:52:42;;;;;;;61.17;25.70;;;5.10;99.90;;;;;;5066614;28;20036;-74
2024/03/10 02:55:08;;;;;;;53.63;22.83;;;5.10;99.90;;;;;;5084477;28;20165;-74
2024/03/10 02:57:34;;;;;;;57.42;24.55;;;5.10;99.90;;;;;;5080816;28;20036;-74
2024/03/10 03:00:00;;;;;;;52.97;23.55;;;5.10;99.90;;;;;;5067573;28;20465;-74
2024/03/10 03:02:26;;;;;;;58.50;25.95;;;5.10;99.90;;;;;;5063312;28;20032;-74
2024/03/10 03:04:52;;;;;;;53.95;24.65;;;5.10;99.90;;;;;;5069348;28;20505;-74
2024/03/10 03:07:18;;;;;;;58.78;26.02;;;5.20;99.90;;;;;;5077581;28;20048;-74
2024/03/10 03:09:47;;;;;;;51.83;24.58;;;5.00;99.90;;;;;;5069402;28;20697;-74
2024/03/10 03:12:13;;;;;;;60.75;25.25;;;5.00;99.90;;;;;;5083439;28;20032;-74
2024/03/10 03:14:40;;;;;;;57.88;25.88;;;5.00;99.90;;;;;;5085472;28;20047;-74
2024/03/10 03:17:05;;;;;;;56.50;25.33;;;5.00;99.90;;;;;;5085069;28;20402;-74
2024/03/10 03:19:36;;;;;;;55.15;25.83;;;5.00;99.90;;;;;;5078080;28;20057;-74
2024/03/10 03:22:04;;;;;;;50.47;24.63;;;5.00;99.90;;;;;;5079315;28;20032;-74
2024/03/10 03:24:30;;;;;;;59.17;27.23;;;4.90;99.90;;;;;;5078318;28;20425;-74
2024/03/10 03:26:56;;;;;;;53.97;25.30;;;4.90;99.90;;;;;;5064623;28;20107;-74
2024/03/10 03:29:21;;;;;;;60.45;26.13;;;4.90;99.90;;;;;;5081333;28;20148;-74
2024/03/10 03:31:47;;;;;;;60.85;26.20;;;4.90;99.90;;;;;;5085308;28;20097;-74
2024/03/10 03:34:13;;;;;;;61.45;26.58;;;4.80;99.90;;;;;;5075054;28;20152;-74
2024/03/10 03:36:38;;;;;;;60.90;26.17;;;4.80;99.90;;;;;;5076931;28;20016;-74
2024/03/10 03:39:09;;;;;;;60.25;27.20;;;4.80;99.90;;;;;;5078524;28;20287;-74
2024/03/10 03:41:34;;;;;;;62.25;27.67;;;4.80;99.90;;;;;;5081848;28;20027;-74
2024/03/10 03:44:01;;;;;;;57.95;25.95;;;4.80;99.90;;;;;;5082093;28;20028;-74
2024/03/10 03:46:28;;;;;;;58.60;25.92;;;4.70;99.90;;;;;;5078164;28;20066;-74
2024/03/10 03:48:54;;;;;;;59.60;27.17;;;4.80;99.90;;;;;;5085565;28;20029;-74
2024/03/10 03:51:19;;;;;;;65.00;27.23;;;4.70;99.90;;;;;;5080799;28;20111;-74
2024/03/10 03:53:45;;;;;;;60.55;27.95;;;4.70;99.90;;;;;;5063371;28;20041;-74
2024/03/10 03:56:11;;;;;;;62.58;27.08;;;4.70;99.90;;;;;;5063053;28;20028;-74
2024/03/10 03:58:37;;;;;;;67.22;27.90;;;4.70;99.90;;;;;;5080076;28;20035;-74
2024/03/10 04:01:04;;;;;;;68.55;28.10;;;4.70;99.90;;;;;;5081558;28;20034;-74
2024/03/10 04:03:30;;;;;;;60.27;26.70;;;4.70;99.90;;;;;;5080526;28;20089;-74
2024/03/10 04:05:56;;;;;;;58.17;27.92;;;4.70;99.90;;;;;;5081154;28;20595;-74
2024/03/10 04:08:21;;;;;;;69.65;29.80;;;4.70;99.90;;;;;;5068500;28;20029;-74
2024/03/10 04:10:47;;;;;;;58.60;27.52;;;4.70;99.90;;;;;;5080593;28;20042;-74
2024/03/10 04:13:13;;;;;;;62.30;27.92;;;4.70;99.90;;;;;;5067930;28;20131;-74
2024/03/10 04:15:39;;;;;;;68.68;30.25;;;4.70;99.90;;;;;;5084561;28;20115;-74
2024/03/10 04:18:05;;;;;;;69.55;28.75;;;4.60;99.90;;;;;;5083054;28;20043;-74
2024/03/10 04:20:35;;;;;;;61.63;28.63;;;4.60;99.90;;;;;;5080033;28;20053;-74
2024/03/10 04:23:05;;;;;;;62.05;28.00;;;4.60;99.90;;;;;;5068472;28;20468;-74
2024/03/10 04:25:34;;;;;;;65.10;29.38;;;4.60;99.90;;;;;;5082241;28;20020;-74
2024/03/10 04:28:01;;;;;;;68.57;29.58;;;4.50;99.90;;;;;;5080202;28;20032;-74
2024/03/10 04:30:27;;;;;;;62.53;28.43;;;4.60;99.90;;;;;;5081765;28;20055;-74
2024/03/10 04:32:53;;;;;;;63.88;30.67;;;4.60;99.90;;;;;;5082438;28;20261;-74
2024/03/10 04:35:19;;;;;;;67.72;29.90;;;4.50;99.90;;;;;;5084097;28;20523;-74
2024/03/10 04:37:45;;;;;;;68.18;29.27;;;4.60;99.90;;;;;;5080075;28;20028;-74
2024/03/10 04:40:12;;;;;;;68.32;28.45;;;4.50;99.90;;;;;;5062719;28;20119;-74
2024/03/10 04:42:38;;;;;;;61.03;27.60;;;4.50;99.90;;;;;;5077605;28;20095;-74
2024/03/10 04:45:08;;;;;;;62.17;27.95;;;4.50;99.90;;;;;;5082381;28;20032;-74
2024/03/10 04:47:34;;;;;;;74.38;31.58;;;4.50;99.90;;;;;;5068677;28;20825;-74
2024/03/10 04:50:02;;;;;;;67.97;31.15;;;4.40;99.90;;;;;;5079447;28;20044;-74
2024/03/10 04:52:28;;;;;;;70.80;29.90;;;4.40;99.90;;;;;;5083081;28;20028;-74
2024/03/10 04:54:54;;;;;;;65.80;29.60;;;4.40;99.90;;;;;;5077596;28;20032;-74
2024/03/10 04:57:19;;;;;;;71.25;31.77;;;4.40;99.90;;;;;;5076099;28;20024;-74
2024/03/10 04:59:45;;;;;;;74.80;31.60;;;4.30;99.90;;;;;;5083619;28;20058;-74
2024/03/10 05:02:11;;;;;;;72.72;31.00;;;4.40;99.90;;;;;;5072939;28;20033;-74
2024/03/10 05:04:37;;;;;;;67.35;30.10;;;4.30;99.90;;;;;;5084830;28;20055;-74
2024/03/10 05:07:04;;;;;;;73.55;31.63;;;4.30;99.90;;;;;;5069299;28;20726;-74
2024/03/10 05:09:30;;;;;;;69.35;31.30;;;4.40;99.90;;;;;;5078469;28;20050;-74
2024/03/10 05:11:56;;;;;;;72.45;31.65;;;4.40;99.90;;;;;;5064485;28;20020;-74
2024/03/10 05:14:22;;;;;;;68.50;30.63;;;4.40;99.90;;;;;;5078320;28;20097;-74
2024/03/10 05:16:48;;;;;;;73.05;31.65;;;4.30;99.90;;;;;;5081970;28;20504;-74
2024/03/10 05:19:13;;;;;;;69.90;31.67;;;4.30;99.90;;;;;;5066472;28;20585;-74
2024/03/10 05:21:39;;;;;;;74.97;31.27;;;4.30;99.90;;;;;;5079359;28;20027;-74
2024/03/10 05:24:07;;;;;;;73.65;32.22;;;4.30;99.90;;;;;;5078364;28;20094;-74
2024/03/10 05:26:33;;;;;;;76.32;31.65;;;4.30;99.90;;;;;;5084058;28;20042;-74
2024/03/10 05:28:58;;;;;;;71.88;31.63;;;4.30;99.90;;;;;;5077774;28;20036;-73
2024/03/10 05:31:27;;;;;;;76.85;32.90;;;4.30;99.90;;;;;;5079270;28;20040;-74
2024/03/10 05:33:53;;;;;;;80.78;33.22;;;4.30;99.90;;;;;;5081543;28;20042;-74
2024/03/10 05:36:19;;;;;;;70.93;31.98;;;4.30;99.90;;;;;;5083430;28;20055;-74
2024/03/10 05:38:44;;;;;;;73.80;32.40;;;4.30;99.90;;;;;;5072294;28;20084;-74
2024/03/10 05:41:10;;;;;;;67.43;31.10;;;4.30;99.90;;;;;;5072117;28;20046;-74
2024/03/10 05:43:35;;;;;;;78.95;32.67;;;4.30;99.90;;;;;;5066378;28;20043;-74
2024/03/10 05:46:01;;;;;;;76.18;32.38;;;4.30;99.90;;;;;;5080291;28;20036;-74
2024/03/10 05:48:27;;;;;;;75.57;31.98;;;4.40;99.90;;;;;;5059586;28;20032;-74
2024/03/10 05:50:52;;;;;;;81.82;33.15;;;4.30;99.90;;;;;;5076172;28;20028;-74
2024/03/10 05:53:18;;;;;;;78.28;34.15;;;4.30;99.90;;;;;;5075445;28;20032;-74
2024/03/10 05:55:44;;;;;;;73.57;32.22;;;4.30;99.90;;;;;;5077495;28;21517;-74
2024/03/10 05:58:12;;;;;;;75.07;33.55;;;4.30;99.90;;;;;;5062890;28;20435;-74
2024/03/10 06:00:38;;;;;;;75.00;32.55;;;4.30;99.90;;;;;;5082214;28;20353;-74
2024/03/10 06:03:04;;;;;;;78.68;33.33;;;4.30;99.90;;;;;;5082346;28;20593;-74
2024/03/10 06:05:30;;;;;;;74.28;33.03;;;4.30;99.90;;;;;;5083637;28;20052;-74
2024/03/10 06:07:56;;;;;;;76.55;33.28;;;4.30;99.90;;;;;;5081292;28;20056;-74
2024/03/10 06:10:22;;;;;;;75.10;33.17;;;4.30;99.90;;;;;;5082802;28;20048;-74
2024/03/10 06:12:47;;;;;;;77.47;32.47;;;4.30;99.90;;;;;;5084150;28;20435;-74
2024/03/10 06:15:16;;;;;;;73.82;33.95;;;4.30;99.90;;;;;;5081543;28;20596;-74
2024/03/10 06:17:50;;;;;;;77.97;32.80;;;4.30;99.90;;;;;;5063443;28;20047;-74
2024/03/10 06:25:45;;;;;;;75.68;32.42;;;4.40;99.90;;;;;;5089830;28;20703;-74
2024/03/10 06:28:11;;;;;;;75.28;32.90;;;4.40;99.90;;;;;;5084114;28;20122;-74
2024/03/10 06:30:36;;;;;;;75.75;33.00;;;4.40;99.90;;;;;;5076088;28;20019;-73
2024/03/10 06:33:02;;;;;;;76.47;32.20;;;4.40;99.90;;;;;;5066772;28;20031;-74
2024/03/10 06:35:28;;;;;;;77.85;33.50;;;4.40;99.90;;;;;;5081991;28;20408;-74
2024/03/10 06:37:56;;;;;;;73.50;31.80;;;4.50;99.90;;;;;;5066459;28;20037;-74
2024/03/10 06:40:21;;;;;;;76.32;32.25;;;4.50;99.90;;;;;;5079859;28;20032;-74
2024/03/10 06:42:47;;;;;;;74.75;31.52;;;4.50;99.90;;;;;;5082022;28;20029;-74
2024/03/10 06:45:15;;;;;;;73.18;31.95;;;4.50;99.90;;;;;;5078173;28;20095;-74
2024/03/10 06:47:41;;;;;;;72.47;33.10;;;4.60;99.90;;;;;;5076576;28;20027;-74
2024/03/10 06:50:09;;;;;;;74.60;32.03;;;4.60;99.90;;;;;;5079929;28;20037;-74
2024/03/10 06:52:35;;;;;;;72.50;32.97;;;4.60;99.90;;;;;;5072115;28;20059;-74
2024/03/10 06:55:03;;;;;;;69.82;31.48;;;4.70;99.90;;;;;;5071119;28;20664;-74
2024/03/10 06:57:28;;;;;;;69.72;31.05;;;4.70;99.90;;;;;;5061887;28;20554;-74
2024/03/10 06:59:54;;;;;;;69.93;31.88;;;4.70;99.90;;;;;;5085800;28;20115;-74
2024/03/10 07:02:22;;;;;;;72.55;32.88;;;4.70;99.90;;;;;;5081591;28;20517;-74
2024/03/10 07:04:48;;;;;;;;;;;4.70;99.90;;;;;;5073214;28;20037;-74
2024/03/10 07:07:13;;;;;;;73.72;31.63;;;4.80;99.90;;;;;;5082932;28;19920;-74
2024/03/10 07:09:41;;;;;;;73.80;33.08;;;4.80;99.90;;;;;;5074465;28;20020;-69
2024/03/10 07:12:07;;;;;;;71.70;31.45;;;4.90;99.90;;;;;;5087566;28;20024;-68
2024/03/10 07:14:35;;;;;;;73.93;31.75;;;4.90;99.90;;;;;;5096332;28;20035;-68
2024/03/10 07:17:01;;;;;;;73.10;32.38;;;5.00;99.90;;;;;;5076124;28;20046;-69
2024/03/10 07:19:27;;;;;;;72.70;32.80;;;5.00;99.90;;;;;;5090352;28;20038;-68
2024/03/10 07:21:52;;;;;;;67.80;31.15;;;5.00;99.90;;;;;;5087477;28;20037;-70
2024/03/10 07:24:18;;;;;;;72.68;33.13;;;5.10;99.90;;;;;;5081695;28;20376;-69
2024/03/10 07:26:44;;;;;;;68.90;29.27;;;5.10;99.90;;;;;;5079442;28;20028;-69
2024/03/10 07:29:09;;;;;;;66.38;30.90;;;5.10;99.90;;;;;;5075343;28;20543;-70
2024/03/10 07:31:35;;;;;;;70.40;30.88;;;5.20;99.90;;;;;;5083075;28;20031;-68
2024/03/10 07:34:00;;;;;;;72.50;32.67;;;5.20;99.90;;;;;;5062684;28;20032;-68
2024/03/10 07:36:26;;;;;;;70.45;31.25;;;5.20;99.90;;;;;;5065574;28;20078;-68
2024/03/10 07:38:53;;;;;;;66.78;32.20;;;5.30;99.90;;;;;;5079694;28;20032;-69
2024/03/10 07:41:19;;;;;;;68.18;31.10;;;5.30;99.90;;;;;;5084953;28;20045;-69
2024/03/10 07:43:45;;;;;;;66.03;30.73;;;5.40;99.90;;;;;;5081782;28;20094;-70
2024/03/10 07:46:10;;;;;;;66.95;30.75;;;5.40;99.90;;;;;;5078772;28;20139;-68
2024/03/10 07:48:36;;;;;;;68.60;31.60;;;5.50;99.90;;;;;;5086087;28;20039;-69
2024/03/10 07:51:03;;;;;;;68.10;31.27;;;5.50;99.90;;;;;;5077141;28;20016;-69
2024/03/10 07:53:29;;;;;;;65.95;31.33;;;5.60;99.90;;;;;;5075985;28;20123;-69
2024/03/10 07:55:58;;;;;;;72.70;32.47;;;5.60;99.90;;;;;;5078567;28;20047;-68
2024/03/10 07:58:25;;;;;;;69.07;32.05;;;5.70;99.90;;;;;;5059057;28;20114;-69
2024/03/10 08:00:51;;;;;;;55.65;28.60;;;5.70;99.90;;;;;;5089992;28;20033;-69
2024/03/10 08:03:18;;;;;;;67.35;31.77;;;5.80;99.90;;;;;;5084971;28;20039;-66
2024/03/10 08:05:44;;;;;;;60.72;29.67;;;5.80;99.90;;;;;;5082337;28;20075;-68
2024/03/10 08:08:10;;;;;;;62.95;30.10;;;5.90;99.90;;;;;;5075253;28;20115;-68
2024/03/10 08:10:36;;;;;;;58.28;29.27;;;5.90;99.90;;;;;;5072223;28;20132;-68
2024/03/10 08:13:02;;;;;;;64.20;29.20;;;6.00;99.90;;;;;;5077018;28;20501;-67
2024/03/10 08:15:27;;;;;;;62.80;30.60;;;6.00;99.90;;;;;;5080636;28;20020;-67
2024/03/10 08:17:53;;;;;;;65.40;29.02;;;6.10;99.90;;;;;;5080894;28;20568;-68
2024/03/10 08:20:19;;;;;;;52.75;27.38;;;6.20;99.90;;;;;;5061584;28;20060;-67
2024/03/10 08:22:45;;;;;;;61.55;29.77;;;6.20;99.90;;;;;;5065831;28;20492;-68
2024/03/10 08:25:12;;;;;;;51.35;26.95;;;6.30;99.90;;;;;;5075895;28;20028;-68
2024/03/10 08:27:38;;;;;;;59.50;28.50;;;6.20;99.90;;;;;;5089461;28;20027;-67
2024/03/10 08:30:15;;;;;;;63.75;31.25;;;6.30;99.90;;;;;;5077498;28;20036;-69
2024/03/10 08:32:41;;;;;;;56.87;28.17;;;6.40;99.90;;;;;;5079281;28;20388;-68
2024/03/10 08:35:08;;;;;;;59.80;28.67;;;6.30;99.90;;;;;;5064407;28;20024;-68
2024/03/10 08:37:35;;;;;;;61.22;29.15;;;6.40;99.90;;;;;;5067225;28;20404;-68
2024/03/10 08:40:09;;;;;;;56.05;27.45;;;6.40;99.90;;;;;;5080193;28;20032;-69
2024/03/10 08:42:36;;;;;;;58.75;28.33;;;6.50;99.90;;;;;;5073510;28;20028;-68
2024/03/10 08:45:02;;;;;;;60.13;29.05;;;6.60;99.90;;;;;;5076381;28;20023;-69
2024/03/10 08:47:28;;;;;;;53.30;27.38;;;6.70;99.90;;;;;;5062822;28;20024;-69
2024/03/10 08:49:53;;;;;;;53.42;26.88;;;6.70;99.90;;;;;;5078382;28;20523;-68
2024/03/10 08:52:19;;;;;;;55.35;27.20;;;6.80;99.90;;;;;;5080656;28;20024;-68
2024/03/10 08:54:44;;;;;;;55.38;28.25;;;6.80;99.90;;;;;;5076367;28;20041;-69
2024/03/10 08:57:10;;;;;;;54.95;27.35;;;6.80;99.90;;;;;;5082089;28;20425;-68
2024/03/10 08:59:36;;;;;;;53.60;27.25;;;6.90;99.90;;;;;;5077773;28;20055;-67
2024/03/10 09:02:04;;;;;;;61.38;29.00;;;6.90;99.90;;;;;;5077882;28;20062;-67
2024/03/10 09:04:30;;;;;;;53.28;27.77;;;6.90;99.90;;;;;;5066543;28;20389;-67
2024/03/10 09:06:56;;;;;;;55.15;27.27;;;7.00;99.90;;;;;;5077311;28;20107;-68
2024/03/10 09:09:22;;;;;;;56.50;26.90;;;7.10;99.90;;;;;;5071168;28;20568;-67
2024/03/10 09:11:49;;;;;;;55.30;27.20;;;7.10;99.90;;;;;;5077391;28;20129;-68
2024/03/10 09:14:15;;;;;;;55.42;26.45;;;7.30;99.90;;;;;;5075101;28;20036;-67
2024/03/10 09:16:43;;;;;;;56.72;26.27;;;7.20;99.90;;;;;;5075820;28;20024;-67
2024/03/10 09:19:09;;;;;;;;;;;7.30;99.90;;;;;;5065909;28;20504;-66
2024/03/10 09:21:36;;;;;;;51.30;24.92;;;7.30;99.90;;;;;;5078754;28;19908;-67
2024/03/10 09:24:02;;;;;;;48.58;26.05;;;7.30;99.90;;;;;;5062192;28;20032;-67
2024/03/10 09:26:28;;;;;;;54.75;26.88;;;7.40;99.90;;;;;;5092659;28;20041;-67
2024/03/10 09:28:57;;;;;;;52.88;25.88;;;7.40;99.90;;;;;;5081553;28;20114;-66
2024/03/10 09:31:23;;;;;;;53.88;26.35;;;7.50;99.90;;;;;;5078828;28;20040;-67
2024/03/10 09:33:53;;;;;;;51.65;27.52;;;7.50;99.90;;;;;;5080687;28;20116;-67
2024/03/10 09:36:19;;;;;;;56.30;27.38;;;7.60;99.90;;;;;;5081635;28;20623;-66
2024/03/10 09:38:45;;;;;;;58.63;27.35;;;7.80;99.90;;;;;;5086600;28;20119;-67
2024/03/10 09:41:15;;;;;;;51.35;25.88;;;7.80;99.90;;;;;;5079911;28;20036;-67
2024/03/10 09:43:40;;;;;;;49.08;25.42;;;7.70;99.90;;;;;;5079976;28;20111;-67
2024/03/10 09:46:13;;;;;;;50.50;25.25;;;7.80;99.90;;;;;;5058499;28;20115;-68
2024/03/10 09:48:43;;;;;;;50.38;25.42;;;7.80;99.90;;;;;;5077410;28;20020;-69
2024/03/10 09:51:13;;;;;;;48.47;25.05;;;7.90;99.90;;;;;;5083567;28;20039;-68
2024/03/10 09:53:40;;;;;;;49.05;25.10;;;7.90;99.90;;;;;;5083132;28;20052;-69
2024/03/10 09:56:07;;;;;;;51.78;25.10;;;8.00;99.90;;;;;;5072983;28;20058;-68
2024/03/10 09:59:18;;;;;;;44.38;24.35;;;8.00;99.90;;;;;;5078005;28;20031;-66
2024/03/10 10:01:46;;;;;;;48.92;24.95;;;8.10;99.90;;;;;;4992892;28;20045;-68
2024/03/10 10:04:15;;;;;;;48.50;26.33;;;8.10;99.90;;;;;;5003013;28;20064;-68
2024/03/10 10:06:44;;;;;;;52.40;26.15;;;8.20;99.90;;;;;;5043031;28;20497;-66
2024/03/10 10:09:10;;;;;;;54.67;26.55;;;8.30;99.90;;;;;;5081407;28;20031;-68
2024/03/10 10:11:39;;;;;;;48.60;24.75;;;8.30;99.90;;;;;;5082263;28;23191;-67
2024/03/10 10:14:14;;;;;;;45.50;24.55;;;8.30;99.90;;;;;;5086120;28;20105;-70
2024/03/10 10:16:51;;;;;;;49.97;24.73;;;8.30;99.90;;;;;;5075614;28;20450;-68
2024/03/10 10:19:17;;;;;;;46.65;24.55;;;8.40;99.90;;;;;;5081412;28;20812;-67
2024/03/10 10:21:44;;;;;;;54.17;25.13;;;8.40;99.90;;;;;;5081697;28;20044;-67
2024/03/10 10:24:10;;;;;;;50.33;25.23;;;8.50;99.90;;;;;;5083133;28;20032;-69
2024/03/10 10:26:36;;;;;;;50.95;26.08;;;8.50;99.90;;;;;;5075592;28;20139;-68
2024/03/10 10:29:07;;;;;;;47.75;25.25;;;8.60;99.90;;;;;;5065350;28;20517;-68
2024/03/10 10:31:34;;;;;;;44.42;23.77;;;8.60;99.90;;;;;;5063049;28;20044;-68
2024/03/10 10:34:00;;;;;;;45.67;24.87;;;8.80;99.90;;;;;;5078873;28;20043;-68
2024/03/10 10:36:26;;;;;;;47.08;25.23;;;8.90;99.90;;;;;;5080263;28;20036;-67
2024/03/10 10:38:51;;;;;;;47.10;24.25;;;9.00;99.90;;;;;;5079588;28;20032;-68
2024/03/10 10:41:17;;;;;;;50.38;25.05;;;9.10;99.90;;;;;;5081956;28;20063;-66
2024/03/10 10:43:45;;;;;;;55.28;24.98;;;9.20;99.90;;;;;;5073193;28;20590;-67
2024/03/10 10:46:14;;;;;;;50.28;25.67;;;9.30;99.90;;;;;;5086047;28;20089;-68
2024/03/10 10:48:41;;;;;;;44.17;22.60;;;9.30;99.90;;;;;;5085049;28;20103;-68
2024/03/10 10:51:07;;;;;;;44.05;23.05;;;9.40;99.90;;;;;;5082741;28;20120;-68
2024/03/10 10:53:34;;;;;;;43.97;24.23;;;9.40;99.90;;;;;;5088354;28;20044;-68
2024/03/10 10:56:00;;;;;;;40.88;22.85;;;9.40;99.90;;;;;;5088028;28;20047;-68
2024/03/10 10:58:34;;;;;;;40.22;21.77;;;9.40;99.90;;;;;;5096071;28;20029;-68
2024/03/10 11:01:04;;;;;;;45.72;23.08;;;9.50;99.90;;;;;;5090155;28;20048;-67
2024/03/10 11:03:37;;;;;;;45.17;21.45;;;9.50;99.90;;;;;;5091161;28;20623;-68
2024/03/10 11:06:02;;;;;;;42.28;22.67;;;9.60;99.90;;;;;;5089229;28;20052;-67
2024/03/10 11:08:28;;;;;;;42.92;23.35;;;9.60;99.90;;;;;;5087145;28;20067;-68
2024/03/10 11:10:54;;;;;;;40.10;22.02;;;9.60;99.90;;;;;;5071243;28;20040;-68
2024/03/10 11:13:22;;;;;;;40.30;23.17;;;9.70;99.90;;;;;;5092053;28;20043;-68
2024/03/10 11:16:02;;;;;;;40.72;21.45;;;9.80;99.90;;;;;;5077704;28;20036;-68
2024/03/10 11:18:29;;;;;;;39.08;21.90;;;9.80;99.90;;;;;;5087027;28;20060;-67
2024/03/10 11:20:56;;;;;;;40.20;22.42;;;9.90;99.90;;;;;;5079008;28;20041;-68
2024/03/10 11:23:26;;;;;;;44.28;23.98;;;10.00;99.90;;;;;;5085520;28;20129;-67
2024/03/10 11:25:52;;;;;;;45.10;23.77;;;10.10;99.90;;;;;;5088026;28;20027;-68
2024/03/10 11:28:26;;;;;;;42.33;22.67;;;10.30;99.90;;;;;;5085661;28;20459;-68
2024/03/10 11:30:56;;;;;;;42.30;22.60;;;10.40;99.90;;;;;;5073358;28;20036;-68
2024/03/10 11:33:23;;;;;;;40.78;23.13;;;10.50;99.90;;;;;;5087522;28;20032;-68
2024/03/10 11:35:50;;;;;;;40.60;22.13;;;10.50;99.90;;;;;;5078273;28;20028;-67
2024/03/10 11:38:16;;;;;;;39.50;21.98;;;10.50;99.90;;;;;;5093268;28;20070;-68
2024/03/10 11:40:42;;;;;;;45.22;22.65;;;10.60;99.90;;;;;;5083139;28;20024;-68
2024/03/10 11:43:10;;;;;;;41.55;22.40;;;10.70;99.90;;;;;;5077963;28;20031;-68
2024/03/10 11:45:38;;;;;;;40.42;22.23;;;10.80;99.90;;;;;;5083234;28;20488;-68
2024/03/10 11:48:05;;;;;;;42.13;21.80;;;10.80;99.90;;;;;;5078866;28;20622;-68
2024/03/10 11:50:31;;;;;;;39.77;20.57;;;10.90;99.90;;;;;;5076924;28;20032;-68
2024/03/10 11:52:57;;;;;;;37.90;20.17;;;10.90;99.90;;;;;;5061004;28;20514;-68
2024/03/10 11:55:23;;;;;;;35.40;21.52;;;11.00;99.90;;;;;;5081724;28;22020;-68
2024/03/10 11:57:53;;;;;;;38.85;20.98;;;11.40;99.90;;;;;;5089623;28;20115;-68
2024/03/10 12:00:21;;;;;;;38.65;21.02;;;11.70;99.90;;;;;;5085654;28;20055;-68
2024/03/10 12:02:50;;;;;;;37.35;21.77;;;12.10;99.90;;;;;;5084374;28;20066;-68
2024/03/10 12:05:17;;;;;;;37.10;21.80;;;12.60;99.90;;;;;;5081616;28;20465;-69
2024/03/10 12:07:46;;;;;;;37.78;21.70;;;13.50;99.90;;;;;;5093313;28;20078;-68
2024/03/10 12:10:20;;;;;;;30.25;18.65;;;14.40;99.80;;;;;;5068084;28;20040;-69
2024/03/10 12:12:50;;;;;;;29.48;18.05;;;15.20;98.50;;;;;;5079055;28;20105;-69
2024/03/10 12:15:17;;;;;;;29.42;17.90;;;15.80;97.20;;;;;;5085042;28;20100;-68
2024/03/10 12:17:53;;;;;;;29.13;16.92;;;16.10;96.70;;;;;;5079804;28;20074;-69
2024/03/10 12:20:20;;;;;;;29.00;16.70;;;16.20;96.50;;;;;;5081340;28;20580;-68
2024/03/10 12:22:48;;;;;;;27.33;16.93;;;16.20;96.00;;;;;;5080620;28;20032;-68
2024/03/10 12:25:14;;;;;;;27.85;17.13;;;15.90;95.40;;;;;;5078661;28;20060;-69
2024/03/10 12:27:40;;;;;;;28.35;17.38;;;16.00;95.10;;;;;;5077043;28;20540;-68
2024/03/10 12:30:11;;;;;;;29.08;17.40;;;16.30;95.10;;;;;;5077137;28;20482;-68
2024/03/10 12:32:44;;;;;;;29.25;18.10;;;16.10;94.60;;;;;;5078621;28;20580;-69
2024/03/10 12:35:10;;;;;;;27.02;17.02;;;16.30;94.40;;;;;;5079773;28;20658;-69
2024/03/10 12:37:38;;;;;;;25.02;16.23;;;16.30;94.30;;;;;;5076859;28;20035;-69
2024/03/10 12:40:06;;;;;;;28.67;17.02;;;16.40;94.30;;;;;;5080679;28;20512;-68
2024/03/10 12:42:31;;;;;;;27.25;16.73;;;16.60;94.80;;;;;;5081755;28;20032;-68
2024/03/10 12:44:58;;;;;;;29.80;16.27;;;16.60;93.50;;;;;;5077902;28;20028;-69
2024/03/10 12:47:24;;;;;;;26.20;15.55;;;16.50;93.60;;;;;;5077830;28;20032;-68
2024/03/10 12:49:49;;;;;;;28.30;17.45;;;16.70;93.60;;;;;;5078988;28;20040;-69
2024/03/10 12:52:15;;;;;;;28.33;16.77;;;16.60;93.20;;;;;;5078440;28;20043;-69
2024/03/10 12:54:40;;;;;;;24.63;15.45;;;16.30;93.30;;;;;;5079197;28;20051;-68
2024/03/10 12:57:06;;;;;;;28.67;17.33;;;15.90;93.60;;;;;;5072894;28;20246;-68